createdAt,value
2019-04-27T00:02:45.924Z,9.75
2019-04-27T00:05:32.074Z,9.63
2019-04-27T00:08:13.993Z,9.51
2019-04-27T00:10:48.638Z,9.53
2019-04-27T00:13:17.371Z,9.28
2019-04-27T00:16:09.973Z,9.41
2019-04-27T00:18:57.874Z,9.48
2019-04-27T00:21:30.595Z,9.54
2019-04-27T00:23:59.232Z,9.36
2019-04-27T00:26:27.945Z,9.41
2019-04-27T00:28:56.687Z,9.55
2019-04-27T00:31:25.622Z,9.51
2019-04-27T00:33:54.414Z,9.54
2019-04-27T00:36:30.647Z,9.51
2019-04-27T00:39:23.092Z,9.55
2019-04-27T00:41:53.140Z,9.65
2019-04-27T00:44:23.740Z,9.71
2019-04-27T00:46:53.404Z,9.75
2019-04-27T00:49:23.797Z,9.83
2019-04-27T00:51:53.618Z,9.79
2019-04-27T00:54:23.880Z,9.80
2019-04-27T00:57:09.310Z,9.82
2019-04-27T00:59:56.655Z,9.85
2019-04-27T01:02:59.839Z,9.82
2019-04-27T01:05:29.496Z,9.88
2019-04-27T01:07:58.480Z,9.88
2019-04-27T01:10:27.375Z,9.84
2019-04-27T01:12:56.082Z,9.98
2019-04-27T01:15:24.799Z,10.14
2019-04-27T01:17:53.547Z,10.06
2019-04-27T01:20:22.252Z,10.06
2019-04-27T01:22:50.899Z,10.03
2019-04-27T01:25:21.183Z,10.01
2019-04-27T01:27:59.541Z,9.92
2019-04-27T01:30:34.047Z,9.71
2019-04-27T01:33:02.680Z,9.81
2019-04-27T01:35:31.313Z,9.88
2019-04-27T01:38:00.183Z,9.78
2019-04-27T01:40:29.482Z,9.84
2019-04-27T01:42:58.840Z,9.87
2019-04-27T01:45:28.975Z,9.79
2019-04-27T01:47:59.427Z,9.78
2019-04-27T01:50:29.160Z,9.85
2019-04-27T01:52:58.775Z,9.97
2019-04-27T01:55:27.503Z,10.00
2019-04-27T01:57:56.151Z,9.98
2019-04-27T02:00:29.527Z,9.87
2019-04-27T02:02:59.843Z,9.70
2019-04-27T02:05:33.732Z,9.77
2019-04-27T02:08:02.456Z,9.71
2019-04-27T02:10:31.091Z,9.94
2019-04-27T02:12:59.719Z,9.66
2019-04-27T02:15:29.366Z,9.87
2019-04-27T02:17:59.730Z,9.77
2019-04-27T02:20:29.972Z,9.78
2019-04-27T02:22:58.867Z,9.76
2019-04-27T02:25:29.345Z,9.69
2019-04-27T02:28:03.363Z,9.78
2019-04-27T02:30:53.922Z,9.78
2019-04-27T02:33:30.335Z,9.57
2019-04-27T02:36:00.280Z,9.70
2019-04-27T02:38:30.572Z,9.54
2019-04-27T02:41:00.263Z,9.65
2019-04-27T02:43:39.928Z,9.68
2019-04-27T02:46:09.575Z,9.66
2019-04-27T02:48:53.019Z,9.57
2019-04-27T02:51:10.531Z,9.67
2019-04-27T02:53:56.347Z,9.70
2019-04-27T02:56:25.067Z,9.54
2019-04-27T02:58:53.708Z,9.49
2019-04-27T03:01:23.720Z,9.40
2019-04-27T03:03:52.348Z,9.48
2019-04-27T03:06:20.961Z,9.44
2019-04-27T03:08:53.869Z,9.38
2019-04-27T03:11:20.505Z,9.25
2019-04-27T03:14:15.128Z,9.21
2019-04-27T03:16:55.984Z,9.20
2019-04-27T03:19:42.235Z,8.79
2019-04-27T03:22:36.095Z,8.87
2019-04-27T03:25:20.779Z,8.95
2019-04-27T03:27:50.439Z,9.08
2019-04-27T03:30:22.775Z,9.21
2019-04-27T03:32:54.983Z,9.22
2019-04-27T03:35:22.815Z,9.19
2019-04-27T03:37:50.290Z,9.25
2019-04-27T03:40:20.511Z,9.21
2019-04-27T03:42:51.142Z,9.09
2019-04-27T03:45:20.323Z,9.20
2019-04-27T03:47:50.535Z,9.17
2019-04-27T03:50:24.978Z,9.13
2019-04-27T03:53:29.759Z,9.17
2019-04-27T03:56:05.063Z,9.04
2019-04-27T03:58:40.614Z,9.37
2019-04-27T04:01:10.535Z,9.53
2019-04-27T04:03:39.581Z,9.43
2019-04-27T04:06:10.505Z,9.48
2019-04-27T04:08:39.727Z,9.35
2019-04-27T04:11:16.033Z,9.43
2019-04-27T04:13:49.872Z,9.44
2019-04-27T04:16:32.483Z,9.57
2019-04-27T04:19:06.503Z,9.41
2019-04-27T04:21:35.140Z,9.50
2019-04-27T04:24:04.221Z,9.15
2019-04-27T04:26:33.267Z,9.32
2019-04-27T04:29:03.139Z,9.33
2019-04-27T04:31:33.285Z,9.41
2019-04-27T04:34:02.244Z,9.47
2019-04-27T04:36:31.237Z,9.58
2019-04-27T04:39:00.681Z,9.76
2019-04-27T04:41:43.848Z,9.63
2019-04-27T04:44:20.137Z,9.53
2019-04-27T04:47:05.109Z,9.68
2019-04-27T04:49:33.737Z,9.89
2019-04-27T04:52:02.832Z,9.93
2019-04-27T04:54:31.496Z,9.57
2019-04-27T04:57:01.006Z,9.07
2019-04-27T04:59:29.652Z,8.91
2019-04-27T05:02:00.275Z,9.40
2019-04-27T05:04:29.180Z,9.71
2019-04-27T05:06:59.166Z,9.43
2019-04-27T05:09:29.606Z,9.69
2019-04-27T05:11:58.728Z,9.87
2019-04-27T05:14:28.863Z,10.01
2019-04-27T05:16:59.212Z,9.85
2019-04-27T05:19:28.870Z,9.89
2019-04-27T05:21:59.324Z,10.05
2019-04-27T05:24:29.256Z,10.34
2019-04-27T05:26:59.075Z,10.29
2019-04-27T05:29:29.262Z,10.38
2019-04-27T05:31:59.215Z,10.35
2019-04-27T05:34:29.472Z,10.63
2019-04-27T05:37:00.735Z,10.63
2019-04-27T05:39:30.030Z,10.40
2019-04-27T05:41:59.761Z,10.59
2019-04-27T05:44:45.676Z,10.69
2019-04-27T05:47:19.407Z,10.64
2019-04-27T05:49:52.343Z,10.48
2019-04-27T05:52:30.447Z,10.72
2019-04-27T05:54:59.747Z,10.74
2019-04-27T05:57:31.370Z,10.90
2019-04-27T06:00:02.077Z,10.94
2019-04-27T06:02:31.996Z,10.58
2019-04-27T06:05:00.650Z,10.33
2019-04-27T06:07:29.809Z,10.57
2019-04-27T06:09:59.893Z,10.49
2019-04-27T06:12:29.709Z,10.69
2019-04-27T06:14:59.991Z,10.98
2019-04-27T06:17:34.102Z,11.23
2019-04-27T06:20:02.747Z,11.44
2019-04-27T06:22:31.379Z,11.39
2019-04-27T06:25:00.473Z,11.58
2019-04-27T06:27:30.947Z,11.48
2019-04-27T06:29:59.829Z,11.12
2019-04-27T06:32:29.538Z,11.15
2019-04-27T06:34:58.944Z,11.00
2019-04-27T06:37:29.331Z,11.06
2019-04-27T06:39:59.770Z,11.03
2019-04-27T06:42:29.680Z,10.91
2019-04-27T06:44:59.919Z,11.00
2019-04-27T06:47:29.522Z,10.91
2019-04-27T06:49:58.905Z,10.83
2019-04-27T06:52:29.105Z,11.01
2019-04-27T06:55:00.664Z,10.97
2019-04-27T06:57:30.341Z,11.30
2019-04-27T06:59:59.253Z,11.58
2019-04-27T07:02:29.083Z,11.49
2019-04-27T07:04:59.255Z,11.75
2019-04-27T07:07:29.428Z,11.43
2019-04-27T07:09:59.406Z,11.93
2019-04-27T07:12:28.762Z,11.84
2019-04-27T07:14:59.239Z,12.10
2019-04-27T07:17:28.977Z,12.62
2019-04-27T07:19:59.405Z,12.54
2019-04-27T07:22:29.834Z,12.09
2019-04-27T07:24:59.112Z,12.59
2019-04-27T07:27:29.165Z,12.45
2019-04-27T07:29:59.536Z,12.27
2019-04-27T07:32:29.224Z,12.07
2019-04-27T07:34:58.613Z,12.06
2019-04-27T07:37:29.258Z,11.80
2019-04-27T07:39:59.139Z,11.74
2019-04-27T07:42:30.257Z,11.60
2019-04-27T07:45:06.235Z,11.33
2019-04-27T07:47:34.883Z,11.58
2019-04-27T07:50:03.891Z,11.44
2019-04-27T07:52:32.931Z,11.57
2019-04-27T07:55:01.600Z,11.67
2019-04-27T07:57:30.255Z,11.77
2019-04-27T07:59:59.622Z,11.62
2019-04-27T08:02:29.075Z,10.91
2019-04-27T08:04:59.453Z,11.36
2019-04-27T08:07:29.153Z,11.48
2019-04-27T08:10:01.184Z,11.68
2019-04-27T08:12:28.891Z,11.80
2019-04-27T08:14:57.639Z,11.86
2019-04-27T08:17:28.340Z,11.73
2019-04-27T08:19:57.092Z,11.90
2019-04-27T08:22:25.754Z,11.99
2019-04-27T08:24:54.400Z,12.13
2019-04-27T08:27:34.020Z,12.51
2019-04-27T08:30:20.443Z,12.28
2019-04-27T08:32:50.120Z,12.34
2019-04-27T08:35:19.511Z,12.05
2019-04-27T08:37:49.518Z,12.23
2019-04-27T08:40:19.234Z,12.44
2019-04-27T08:42:49.162Z,12.67
2019-04-27T08:45:19.343Z,12.80
2019-04-27T08:47:49.740Z,12.89
2019-04-27T08:50:19.154Z,12.76
2019-04-27T08:52:49.940Z,12.98
2019-04-27T08:55:19.604Z,13.06
2019-04-27T08:57:49.054Z,12.83
2019-04-27T09:00:19.329Z,12.73
2019-04-27T09:02:50.337Z,13.06
2019-04-27T09:05:25.527Z,13.03
2019-04-27T09:08:01.956Z,13.10
2019-04-27T09:10:44.912Z,13.34
2019-04-27T09:13:23.941Z,13.63
2019-04-27T09:15:59.922Z,13.91
2019-04-27T09:18:32.361Z,14.04
2019-04-27T09:21:01.928Z,14.42
2019-04-27T09:23:30.648Z,14.38
2019-04-27T09:25:59.559Z,14.24
2019-04-27T09:28:29.484Z,14.20
2019-04-27T09:30:58.857Z,14.55
2019-04-27T09:33:27.633Z,14.86
2019-04-27T09:35:56.772Z,14.85
2019-04-27T09:38:26.464Z,14.40
2019-04-27T09:40:57.846Z,14.27
2019-04-27T09:43:26.413Z,14.20
2019-04-27T09:45:55.875Z,14.65
2019-04-27T09:48:25.979Z,14.66
2019-04-27T09:50:56.052Z,15.32
2019-04-27T09:53:24.847Z,15.79
2019-04-27T09:55:53.483Z,15.59
2019-04-27T09:58:22.307Z,15.66
2019-04-27T10:00:50.959Z,16.07
2019-04-27T10:03:19.669Z,16.21
2019-04-27T10:05:48.315Z,16.64
2019-04-27T10:08:17.054Z,16.75
2019-04-27T10:10:46.012Z,16.76
2019-04-27T10:13:16.067Z,16.78
2019-04-27T10:15:45.945Z,16.75
2019-04-27T10:18:16.341Z,16.75
2019-04-27T10:20:56.905Z,16.36
2019-04-27T10:23:15.466Z,16.75
2019-04-27T10:25:45.682Z,17.42
2019-04-27T10:28:14.552Z,17.91
2019-04-27T10:30:43.192Z,17.85
2019-04-27T10:33:11.892Z,17.62
2019-04-27T10:35:40.617Z,17.52
2019-04-27T10:38:09.268Z,17.71
2019-04-27T10:40:37.934Z,18.07
2019-04-27T10:43:06.666Z,18.75
2019-04-27T10:45:36.043Z,19.36
2019-04-27T10:48:05.772Z,19.70
2019-04-27T10:50:36.446Z,19.27
2019-04-27T10:53:06.839Z,18.64
2019-04-27T10:55:36.269Z,19.57
2019-04-27T10:58:05.397Z,20.36
2019-04-27T11:00:41.937Z,21.19
2019-04-27T11:03:11.460Z,21.60
2019-04-27T11:05:58.761Z,23.06
2019-04-27T11:08:27.400Z,23.12
2019-04-27T11:10:56.468Z,23.26
2019-04-27T11:13:25.791Z,25.29
2019-04-27T11:15:54.557Z,28.03
2019-04-27T11:18:25.780Z,30.88
2019-04-27T11:20:56.629Z,31.28
2019-04-27T11:23:26.101Z,30.07
2019-04-27T11:25:55.638Z,28.94
2019-04-27T11:28:25.861Z,26.79
2019-04-27T11:30:54.707Z,25.44
2019-04-27T11:33:23.367Z,26.37
2019-04-27T11:36:11.095Z,27.36
2019-04-27T11:38:39.746Z,25.49
2019-04-27T11:41:08.384Z,24.23
2019-04-27T11:43:37.104Z,26.78
2019-04-27T11:46:06.148Z,27.72
2019-04-27T11:48:36.138Z,27.11
2019-04-27T11:51:06.921Z,25.46
2019-04-27T11:53:35.991Z,26.72
2019-04-27T11:56:04.622Z,31.27
2019-04-27T11:58:34.955Z,34.25
2019-04-27T12:01:03.944Z,34.80
2019-04-27T12:03:32.588Z,35.32
2019-04-27T12:06:01.549Z,36.08
2019-04-27T12:08:30.182Z,35.55
2019-04-27T12:10:58.831Z,31.66
2019-04-27T12:13:28.424Z,34.66
2019-04-27T12:15:58.092Z,38.09
2019-04-27T12:18:28.430Z,40.30
2019-04-27T12:20:58.263Z,37.79
2019-04-27T12:23:35.614Z,39.31
2019-04-27T12:25:59.553Z,41.09
2019-04-27T12:28:38.777Z,44.03
2019-04-27T12:31:12.849Z,42.62
2019-04-27T12:33:42.607Z,43.10
2019-04-27T12:36:12.443Z,43.81
2019-04-27T12:38:42.208Z,45.51
2019-04-27T12:41:11.958Z,44.61
2019-04-27T12:43:41.734Z,42.91
2019-04-27T12:46:11.530Z,42.87
2019-04-27T12:48:41.572Z,42.45
2019-04-27T12:51:11.392Z,42.31
2019-04-27T12:53:56.862Z,36.88
2019-04-27T12:56:46.298Z,37.36
2019-04-27T12:59:37.834Z,36.40
2019-04-27T13:02:07.953Z,38.34
2019-04-27T13:04:38.406Z,41.51
2019-04-27T13:07:08.186Z,40.30
2019-04-27T13:09:37.968Z,40.82
2019-04-27T13:12:06.812Z,38.23
2019-04-27T13:14:36.487Z,31.33
2019-04-27T13:17:06.282Z,24.40
2019-04-27T13:19:36.567Z,19.49
2019-04-27T13:22:06.475Z,16.69
2019-04-27T13:24:35.701Z,16.14
2019-04-27T13:27:06.392Z,16.02
2019-04-27T13:29:35.699Z,15.54
2019-04-27T13:32:06.067Z,15.40
2019-04-27T13:34:36.361Z,15.82
2019-04-27T13:37:26.290Z,15.27
2019-04-27T13:40:06.074Z,14.05
2019-04-27T13:42:26.863Z,14.25
2019-04-27T13:44:55.787Z,13.98
2019-04-27T13:47:42.258Z,14.89
2019-04-27T13:50:25.332Z,15.56
2019-04-27T13:52:54.038Z,16.87
2019-04-27T13:55:23.016Z,18.08
2019-04-27T13:57:51.694Z,18.01
2019-04-27T14:00:20.818Z,17.10
2019-04-27T14:02:49.470Z,16.83
2019-04-27T14:05:18.220Z,16.30
2019-04-27T14:07:46.877Z,15.50
2019-04-27T14:10:15.800Z,15.47
2019-04-27T14:12:44.452Z,15.79
2019-04-27T14:15:13.164Z,19.88
2019-04-27T14:17:41.845Z,23.99
2019-04-27T14:20:10.540Z,28.28
2019-04-27T14:22:39.252Z,29.57
2019-04-27T14:25:08.632Z,27.60
2019-04-27T14:27:40.854Z,25.71
2019-04-27T14:30:11.748Z,22.50
2019-04-27T14:32:42.286Z,22.59
2019-04-27T14:35:11.240Z,22.86
2019-04-27T14:37:40.296Z,22.72
2019-04-27T14:40:09.219Z,21.75
2019-04-27T14:42:38.007Z,20.47
2019-04-27T14:45:08.970Z,19.42
2019-04-27T14:47:38.282Z,19.26
2019-04-27T14:50:08.875Z,19.27
2019-04-27T14:52:39.068Z,18.49
2019-04-27T14:55:08.684Z,18.84
2019-04-27T14:57:39.348Z,18.59
2019-04-27T15:00:10.201Z,19.25
2019-04-27T15:02:40.114Z,19.87
2019-04-27T15:05:08.786Z,20.58
2019-04-27T15:07:37.678Z,20.55
2019-04-27T15:10:06.690Z,20.71
2019-04-27T15:12:35.464Z,19.77
2019-04-27T15:15:04.551Z,19.90
2019-04-27T15:17:33.212Z,20.21
2019-04-27T15:20:06.411Z,20.11
2019-04-27T15:22:35.414Z,20.12
2019-04-27T15:25:12.326Z,20.43
2019-04-27T15:27:42.126Z,21.16
2019-04-27T15:30:15.532Z,21.19
2019-04-27T15:33:02.339Z,21.13
2019-04-27T15:35:43.748Z,19.95
2019-04-27T15:38:14.469Z,20.22
2019-04-27T15:41:02.191Z,20.00
2019-04-27T15:43:33.378Z,19.98
2019-04-27T15:46:02.163Z,21.59
2019-04-27T15:48:33.975Z,21.56
2019-04-27T15:51:05.113Z,21.49
2019-04-27T15:53:33.068Z,24.47
2019-04-27T15:56:02.053Z,24.16
2019-04-27T15:58:31.286Z,22.46
2019-04-27T16:01:02.404Z,21.39
2019-04-27T16:03:31.324Z,20.23
2019-04-27T16:06:03.184Z,18.91
2019-04-27T16:08:30.789Z,18.27
2019-04-27T16:10:59.528Z,17.61
2019-04-27T16:13:32.677Z,17.49
2019-04-27T16:15:58.669Z,17.64
2019-04-27T16:18:31.047Z,17.26
2019-04-27T16:20:58.600Z,16.90
2019-04-27T16:23:28.247Z,17.26
2019-04-27T16:25:58.191Z,18.16
2019-04-27T16:28:27.473Z,18.97
2019-04-27T16:30:56.175Z,18.94
2019-04-27T16:33:24.855Z,18.75
2019-04-27T16:35:59.474Z,18.38
2019-04-27T16:38:35.124Z,18.12
2019-04-27T16:41:03.967Z,17.98
2019-04-27T16:43:33.008Z,17.66
2019-04-27T16:46:04.201Z,17.17
2019-04-27T16:48:34.680Z,16.88
2019-04-27T16:51:03.096Z,16.48
2019-04-27T16:53:39.545Z,16.71
2019-04-27T16:56:06.186Z,16.93
2019-04-27T16:58:39.162Z,16.66
2019-04-27T17:01:11.126Z,16.64
2019-04-27T17:03:41.417Z,16.54
2019-04-27T17:06:10.235Z,16.08
2019-04-27T17:08:39.484Z,16.03
2019-04-27T17:11:13.617Z,16.22
2019-04-27T17:13:44.102Z,16.30
2019-04-27T17:16:35.150Z,15.88
2019-04-27T17:19:13.298Z,15.60
2019-04-27T17:21:41.951Z,15.40
2019-04-27T17:24:10.588Z,14.85
2019-04-27T17:26:40.226Z,15.05
2019-04-27T17:29:16.406Z,15.45
2019-04-27T17:31:46.202Z,15.37
2019-04-27T17:34:19.014Z,15.22
2019-04-27T17:36:49.787Z,15.19
2019-04-27T17:39:19.359Z,15.24
2019-04-27T17:41:49.215Z,15.16
2019-04-27T17:44:22.609Z,15.29
2019-04-27T17:46:51.202Z,15.37
2019-04-27T17:49:19.005Z,15.25
2019-04-27T17:51:48.434Z,15.04
2019-04-27T17:54:18.201Z,14.97
2019-04-27T17:56:49.430Z,14.58
2019-04-27T17:59:20.680Z,14.58
2019-04-27T18:01:53.865Z,14.41
2019-04-27T18:04:20.427Z,14.00
2019-04-27T18:06:49.075Z,13.55
2019-04-27T18:09:19.527Z,13.24
2019-04-27T18:11:50.200Z,13.16
2019-04-27T18:14:19.258Z,13.16
2019-04-27T18:16:48.354Z,13.17
2019-04-27T18:19:25.615Z,13.02
2019-04-27T18:22:04.695Z,13.01
2019-04-27T18:24:41.595Z,13.25
2019-04-27T18:27:20.374Z,13.09
2019-04-27T18:29:49.017Z,13.29
2019-04-27T18:32:17.832Z,13.54
2019-04-27T18:34:49.351Z,13.45
2019-04-27T18:37:20.965Z,13.54
2019-04-27T18:39:50.899Z,13.76
2019-04-27T18:42:18.230Z,13.78
2019-04-27T18:44:48.619Z,13.86
2019-04-27T18:47:17.386Z,13.83
2019-04-27T18:50:23.208Z,13.87
2019-04-27T18:52:55.049Z,13.92
2019-04-27T18:55:23.771Z,14.20
2019-04-27T18:57:54.313Z,14.38
2019-04-27T19:00:22.996Z,14.41
2019-04-27T19:02:51.635Z,14.49
2019-04-27T19:05:20.275Z,14.35
2019-04-27T19:07:49.288Z,13.94
2019-04-27T19:10:19.234Z,12.70
2019-04-27T19:12:48.497Z,12.03
2019-04-27T19:15:18.361Z,11.72
2019-04-27T19:17:48.900Z,11.35
2019-04-27T19:20:18.605Z,11.23
2019-04-27T19:22:49.025Z,11.07
2019-04-27T19:25:52.251Z,10.66
2019-04-27T19:28:40.982Z,10.45
2019-04-27T19:31:14.417Z,9.98
2019-04-27T19:33:43.243Z,9.86
2019-04-27T19:36:11.874Z,9.60
2019-04-27T19:38:41.839Z,9.23
2019-04-27T19:41:10.558Z,9.16
2019-04-27T19:43:39.212Z,8.77
2019-04-27T19:46:07.866Z,8.59
2019-04-27T19:48:36.508Z,8.60
2019-04-27T19:51:05.208Z,8.85
2019-04-27T19:53:33.955Z,8.90
2019-04-27T19:56:02.897Z,8.73
2019-04-27T19:58:35.152Z,8.68
2019-04-27T20:01:12.004Z,8.60
2019-04-27T20:03:46.357Z,8.66
2019-04-27T20:06:15.305Z,8.76
2019-04-27T20:08:48.897Z,8.76
2019-04-27T20:11:17.691Z,8.69
2019-04-27T20:13:46.347Z,8.51
2019-04-27T20:16:15.093Z,8.41
2019-04-27T20:18:43.731Z,8.57
2019-04-27T20:21:12.463Z,8.53
2019-04-27T20:23:41.215Z,8.43
2019-04-27T20:26:10.207Z,8.29
2019-04-27T20:28:38.856Z,8.19
2019-04-27T20:31:07.557Z,7.90
2019-04-27T20:33:36.186Z,7.77
2019-04-27T20:36:04.852Z,7.81
2019-04-27T20:38:33.503Z,7.74
2019-04-27T20:41:02.149Z,7.72
2019-04-27T20:43:31.804Z,7.61
2019-04-27T20:46:00.942Z,7.57
2019-04-27T20:48:31.184Z,7.48
2019-04-27T20:51:01.315Z,7.53
2019-04-27T20:53:35.394Z,7.30
2019-04-27T20:56:04.050Z,7.43
2019-04-27T20:58:32.715Z,7.31
2019-04-27T21:01:01.749Z,7.23
2019-04-27T21:03:36.122Z,7.23
2019-04-27T21:06:23.863Z,7.19
2019-04-27T21:08:52.552Z,7.17
2019-04-27T21:11:21.185Z,7.08
2019-04-27T21:13:51.615Z,7.06
2019-04-27T21:16:21.117Z,6.89
2019-04-27T21:18:51.382Z,6.95
2019-04-27T21:21:20.200Z,6.86
2019-04-27T21:23:48.905Z,6.75
2019-04-27T21:26:17.547Z,6.63
2019-04-27T21:28:46.187Z,6.59
2019-04-27T21:31:14.831Z,6.52
2019-04-27T21:33:43.455Z,6.54
2019-04-27T21:36:12.110Z,6.59
2019-04-27T21:38:41.167Z,6.58
2019-04-27T21:41:11.190Z,6.49
2019-04-27T21:43:39.863Z,6.35
2019-04-27T21:46:08.547Z,6.30
2019-04-27T21:48:37.192Z,6.26
2019-04-27T21:51:05.902Z,6.29
2019-04-27T21:53:52.190Z,6.27
2019-04-27T21:56:21.136Z,6.27
2019-04-27T21:58:51.132Z,6.16
2019-04-27T22:01:26.164Z,6.25
2019-04-27T22:03:55.154Z,6.38
2019-04-27T22:06:23.838Z,6.27
2019-04-27T22:08:53.576Z,6.32
2019-04-27T22:11:22.225Z,6.19
2019-04-27T22:13:51.341Z,6.16
2019-04-27T22:16:21.342Z,6.14
2019-04-27T22:18:51.914Z,6.13
2019-04-27T22:21:21.645Z,6.08
2019-04-27T22:23:55.699Z,6.01
2019-04-27T22:26:24.339Z,6.07
2019-04-27T22:28:52.975Z,6.08
2019-04-27T22:31:22.691Z,6.00
2019-04-27T22:33:54.386Z,5.94
2019-04-27T22:36:21.760Z,5.82
2019-04-27T22:38:51.568Z,5.77
2019-04-27T22:41:27.715Z,5.78
2019-04-27T22:44:15.448Z,5.77
2019-04-27T22:46:45.730Z,5.75
2019-04-27T22:49:14.374Z,5.76
2019-04-27T22:51:43.236Z,5.74
2019-04-27T22:54:12.038Z,5.73
2019-04-27T22:56:42.254Z,5.72
2019-04-27T22:59:19.200Z,5.77
2019-04-27T23:02:12.682Z,5.74
2019-04-27T23:04:44.940Z,5.70
2019-04-27T23:07:13.692Z,5.63
2019-04-27T23:09:43.427Z,5.65
2019-04-27T23:12:12.352Z,5.72
2019-04-27T23:14:41.516Z,5.72
2019-04-27T23:17:28.291Z,5.75
2019-04-27T23:19:57.436Z,5.69
2019-04-27T23:22:26.289Z,5.60
2019-04-27T23:24:55.104Z,5.61
2019-04-27T23:27:23.720Z,5.70
2019-04-27T23:29:52.533Z,5.76
2019-04-27T23:32:27.791Z,5.76
2019-04-27T23:34:56.479Z,5.72
2019-04-27T23:37:25.131Z,5.95
2019-04-27T23:39:53.919Z,6.29
2019-04-27T23:42:22.644Z,6.45
2019-04-27T23:44:51.285Z,6.54
2019-04-27T23:47:20.019Z,6.63
2019-04-27T23:49:48.667Z,6.61
2019-04-27T23:52:27.915Z,6.47
2019-04-27T23:54:59.673Z,6.37
2019-04-27T23:57:31.648Z,6.39
